sensor_id;sensor_type;location;lat;lon;timestamp;P1;P2;P0
70243;PMS7003;57634;51.136;17.024;2023-05-20T00:02:56;18;16;12
70243;PMS7003;57634;51.136;17.024;2023-05-20T00:06:00;20;18;11
70243;PMS7003;57634;51.136;17.024;2023-05-20T00:09:01;21;20;12
70243;PMS7003;57634;51.136;17.024;2023-05-20T00:12:03;18;17;12
70243;PMS7003;57634;51.136;17.024;2023-05-20T00:15:04;20;18;11
70243;PMS7003;57634;51.136;17.024;2023-05-20T00:18:06;16;15;10
70243;PMS7003;57634;51.136;17.024;2023-05-20T00:21:07;21;20;13
70243;PMS7003;57634;51.136;17.024;2023-05-20T00:24:08;21;20;13
70243;PMS7003;57634;51.136;17.024;2023-05-20T00:27:38;25;21;14
70243;PMS7003;57634;51.136;17.024;2023-05-20T00:30:40;29;24;15
70243;PMS7003;57634;51.136;17.024;2023-05-20T00:33:41;34;28;17
70243;PMS7003;57634;51.136;17.024;2023-05-20T00:36:43;24;22;14
70243;PMS7003;57634;51.136;17.024;2023-05-20T00:39:44;21;19;13
70243;PMS7003;57634;51.136;17.024;2023-05-20T00:42:46;21;19;13
70243;PMS7003;57634;51.136;17.024;2023-05-20T00:45:47;18;18;12
70243;PMS7003;57634;51.136;17.024;2023-05-20T00:48:48;18;18;13
70243;PMS7003;57634;51.136;17.024;2023-05-20T00:51:50;19;17;10
70243;PMS7003;57634;51.136;17.024;2023-05-20T00:54:52;16;15;10
70243;PMS7003;57634;51.136;17.024;2023-05-20T00:57:53;20;19;11
70243;PMS7003;57634;51.136;17.024;2023-05-20T01:00:55;20;18;10
70243;PMS7003;57634;51.136;17.024;2023-05-20T01:03:57;17;16;11
70243;PMS7003;57634;51.136;17.024;2023-05-20T01:07:01;21;19;13
70243;PMS7003;57634;51.136;17.024;2023-05-20T01:10:32;17;14;10
70243;PMS7003;57634;51.136;17.024;2023-05-20T01:13:42;15;13;10
70243;PMS7003;57634;51.136;17.024;2023-05-20T01:16:44;17;16;9
70243;PMS7003;57634;51.136;17.024;2023-05-20T01:19:49;19;16;11
70243;PMS7003;57634;51.136;17.024;2023-05-20T01:22:53;17;15;10
70243;PMS7003;57634;51.136;17.024;2023-05-20T01:25:58;18;16;9
70243;PMS7003;57634;51.136;17.024;2023-05-20T01:29:00;16;15;10
70243;PMS7003;57634;51.136;17.024;2023-05-20T01:32:05;14;12;9
70243;PMS7003;57634;51.136;17.024;2023-05-20T01:35:38;16;14;11
70243;PMS7003;57634;51.136;17.024;2023-05-20T01:38:41;16;15;10
70243;PMS7003;57634;51.136;17.024;2023-05-20T01:41:43;18;15;11
70243;PMS7003;57634;51.136;17.024;2023-05-20T01:44:45;14;13;9
70243;PMS7003;57634;51.136;17.024;2023-05-20T01:47:47;13;13;9
70243;PMS7003;57634;51.136;17.024;2023-05-20T01:50:50;14;13;9
70243;PMS7003;57634;51.136;17.024;2023-05-20T01:53:52;16;15;10
70243;PMS7003;57634;51.136;17.024;2023-05-20T01:56:54;14;14;9
70243;PMS7003;57634;51.136;17.024;2023-05-20T01:59:55;14;14;8
70243;PMS7003;57634;51.136;17.024;2023-05-20T02:02:56;16;15;8
70243;PMS7003;57634;51.136;17.024;2023-05-20T02:05:57;12;11;6
70243;PMS7003;57634;51.136;17.024;2023-05-20T02:08:58;13;11;8
70243;PMS7003;57634;51.136;17.024;2023-05-20T02:12:00;14;13;7
70243;PMS7003;57634;51.136;17.024;2023-05-20T02:15:01;15;14;10
70243;PMS7003;57634;51.136;17.024;2023-05-20T02:18:27;17;16;9
70243;PMS7003;57634;51.136;17.024;2023-05-20T02:21:28;14;12;8
70243;PMS7003;57634;51.136;17.024;2023-05-20T02:24:31;16;15;9
70243;PMS7003;57634;51.136;17.024;2023-05-20T02:27:32;16;14;8
70243;PMS7003;57634;51.136;17.024;2023-05-20T02:30:33;16;14;9
70243;PMS7003;57634;51.136;17.024;2023-05-20T02:33:35;16;14;8
70243;PMS7003;57634;51.136;17.024;2023-05-20T02:36:37;11;10;7
70243;PMS7003;57634;51.136;17.024;2023-05-20T02:39:38;15;14;8
70243;PMS7003;57634;51.136;17.024;2023-05-20T02:42:39;15;14;9
70243;PMS7003;57634;51.136;17.024;2023-05-20T02:45:41;14;12;7
70243;PMS7003;57634;51.136;17.024;2023-05-20T02:48:42;13;12;7
70243;PMS7003;57634;51.136;17.024;2023-05-20T02:51:43;12;12;8
70243;PMS7003;57634;51.136;17.024;2023-05-20T02:54:45;12;11;7
70243;PMS7003;57634;51.136;17.024;2023-05-20T02:57:46;14;11;7
70243;PMS7003;57634;51.136;17.024;2023-05-20T03:00:47;13;12;7
70243;PMS7003;57634;51.136;17.024;2023-05-20T03:04:14;13;11;7
70243;PMS7003;57634;51.136;17.024;2023-05-20T03:07:18;15;14;8
70243;PMS7003;57634;51.136;17.024;2023-05-20T03:10:21;13;12;6
70243;PMS7003;57634;51.136;17.024;2023-05-20T03:13:22;15;13;9
70243;PMS7003;57634;51.136;17.024;2023-05-20T03:16:23;14;14;7
70243;PMS7003;57634;51.136;17.024;2023-05-20T03:19:25;12;11;7
70243;PMS7003;57634;51.136;17.024;2023-05-20T03:22:26;14;12;7
70243;PMS7003;57634;51.136;17.024;2023-05-20T03:25:27;12;12;7
70243;PMS7003;57634;51.136;17.024;2023-05-20T03:28:29;14;13;7
70243;PMS7003;57634;51.136;17.024;2023-05-20T03:31:31;14;11;7
70243;PMS7003;57634;51.136;17.024;2023-05-20T03:34:32;11;10;7
70243;PMS7003;57634;51.136;17.024;2023-05-20T03:37:34;10;9;5
70243;PMS7003;57634;51.136;17.024;2023-05-20T03:40:36;12;10;6
70243;PMS7003;57634;51.136;17.024;2023-05-20T03:44:06;14;13;7
70243;PMS7003;57634;51.136;17.024;2023-05-20T03:47:07;11;11;7
70243;PMS7003;57634;51.136;17.024;2023-05-20T03:50:08;13;11;7
70243;PMS7003;57634;51.136;17.024;2023-05-20T03:53:10;12;11;7
70243;PMS7003;57634;51.136;17.024;2023-05-20T03:56:11;12;11;7
70243;PMS7003;57634;51.136;17.024;2023-05-20T03:59:12;14;13;7
70243;PMS7003;57634;51.136;17.024;2023-05-20T04:02:13;11;8;6
70243;PMS7003;57634;51.136;17.024;2023-05-20T04:05:15;12;12;8
70243;PMS7003;57634;51.136;17.024;2023-05-20T04:08:16;12;12;7
70243;PMS7003;57634;51.136;17.024;2023-05-20T04:11:18;13;12;7
70243;PMS7003;57634;51.136;17.024;2023-05-20T04:14:21;12;10;7
70243;PMS7003;57634;51.136;17.024;2023-05-20T04:17:22;13;12;7
70243;PMS7003;57634;51.136;17.024;2023-05-20T04:20:23;11;11;6
70243;PMS7003;57634;51.136;17.024;2023-05-20T04:23:25;14;12;7
70243;PMS7003;57634;51.136;17.024;2023-05-20T04:26:26;12;11;7
70243;PMS7003;57634;51.136;17.024;2023-05-20T04:29:54;13;11;7
70243;PMS7003;57634;51.136;17.024;2023-05-20T04:32:58;12;9;6
70243;PMS7003;57634;51.136;17.024;2023-05-20T04:36:05;13;11;7
70243;PMS7003;57634;51.136;17.024;2023-05-20T04:39:08;16;14;6
70243;PMS7003;57634;51.136;17.024;2023-05-20T04:42:09;17;16;10
70243;PMS7003;57634;51.136;17.024;2023-05-20T04:45:11;12;11;7
70243;PMS7003;57634;51.136;17.024;2023-05-20T04:48:13;10;9;6
70243;PMS7003;57634;51.136;17.024;2023-05-20T04:51:14;10;9;6
70243;PMS7003;57634;51.136;17.024;2023-05-20T04:54:15;11;9;6
70243;PMS7003;57634;51.136;17.024;2023-05-20T04:57:17;11;10;6
70243;PMS7003;57634;51.136;17.024;2023-05-20T05:00:21;12;10;7
70243;PMS7003;57634;51.136;17.024;2023-05-20T05:03:23;13;12;7
70243;PMS7003;57634;51.136;17.024;2023-05-20T05:06:50;12;11;7
70243;PMS7003;57634;51.136;17.024;2023-05-20T05:09:52;13;12;7
70243;PMS7003;57634;51.136;17.024;2023-05-20T05:12:53;11;9;6
70243;PMS7003;57634;51.136;17.024;2023-05-20T05:15:57;12;10;7
70243;PMS7003;57634;51.136;17.024;2023-05-20T05:18:59;12;11;7
70243;PMS7003;57634;51.136;17.024;2023-05-20T05:22:00;21;18;12
70243;PMS7003;57634;51.136;17.024;2023-05-20T05:25:02;14;12;8
70243;PMS7003;57634;51.136;17.024;2023-05-20T05:28:04;12;11;8
70243;PMS7003;57634;51.136;17.024;2023-05-20T05:31:09;13;12;7
70243;PMS7003;57634;51.136;17.024;2023-05-20T05:34:10;12;10;6
70243;PMS7003;57634;51.136;17.024;2023-05-20T05:37:11;13;13;8
70243;PMS7003;57634;51.136;17.024;2023-05-20T05:40:13;18;14;9
70243;PMS7003;57634;51.136;17.024;2023-05-20T05:43:14;15;14;8
70243;PMS7003;57634;51.136;17.024;2023-05-20T05:46:47;13;12;7
70243;PMS7003;57634;51.136;17.024;2023-05-20T05:49:49;17;15;9
70243;PMS7003;57634;51.136;17.024;2023-05-20T05:52:52;23;21;14
70243;PMS7003;57634;51.136;17.024;2023-05-20T05:55:53;17;16;10
70243;PMS7003;57634;51.136;17.024;2023-05-20T05:58:54;15;14;8
70243;PMS7003;57634;51.136;17.024;2023-05-20T06:01:55;13;13;8
70243;PMS7003;57634;51.136;17.024;2023-05-20T06:04:57;16;13;8
70243;PMS7003;57634;51.136;17.024;2023-05-20T06:07:58;15;14;9
70243;PMS7003;57634;51.136;17.024;2023-05-20T06:10:59;12;12;7
70243;PMS7003;57634;51.136;17.024;2023-05-20T06:14:00;16;15;9
70243;PMS7003;57634;51.136;17.024;2023-05-20T06:17:02;15;14;8
70243;PMS7003;57634;51.136;17.024;2023-05-20T06:20:05;14;14;9
70243;PMS7003;57634;51.136;17.024;2023-05-20T06:23:07;16;14;8
70243;PMS7003;57634;51.136;17.024;2023-05-20T06:26:09;15;14;9
70243;PMS7003;57634;51.136;17.024;2023-05-20T06:29:36;17;14;8
70243;PMS7003;57634;51.136;17.024;2023-05-20T06:32:37;17;15;10
70243;PMS7003;57634;51.136;17.024;2023-05-20T06:35:42;20;17;11
70243;PMS7003;57634;51.136;17.024;2023-05-20T06:38:43;21;18;11
70243;PMS7003;57634;51.136;17.024;2023-05-20T06:41:44;18;18;10
70243;PMS7003;57634;51.136;17.024;2023-05-20T06:44:46;18;17;11
70243;PMS7003;57634;51.136;17.024;2023-05-20T06:47:47;16;14;8
70243;PMS7003;57634;51.136;17.024;2023-05-20T06:50:50;17;15;9
70243;PMS7003;57634;51.136;17.024;2023-05-20T06:53:51;18;15;8
70243;PMS7003;57634;51.136;17.024;2023-05-20T06:56:52;20;18;11
70243;PMS7003;57634;51.136;17.024;2023-05-20T06:59:54;16;15;9
70243;PMS7003;57634;51.136;17.024;2023-05-20T07:02:55;17;14;10
70243;PMS7003;57634;51.136;17.024;2023-05-20T07:05:56;15;13;8
70243;PMS7003;57634;51.136;17.024;2023-05-20T07:08:57;17;17;10
70243;PMS7003;57634;51.136;17.024;2023-05-20T07:12:25;16;15;9
70243;PMS7003;57634;51.136;17.024;2023-05-20T07:15:26;18;16;10
70243;PMS7003;57634;51.136;17.024;2023-05-20T07:18:27;12;11;7
70243;PMS7003;57634;51.136;17.024;2023-05-20T07:21:29;16;14;9
70243;PMS7003;57634;51.136;17.024;2023-05-20T07:24:30;13;12;7
70243;PMS7003;57634;51.136;17.024;2023-05-20T07:27:32;14;13;8
70243;PMS7003;57634;51.136;17.024;2023-05-20T07:30:34;12;11;8
70243;PMS7003;57634;51.136;17.024;2023-05-20T07:33:35;12;11;7
70243;PMS7003;57634;51.136;17.024;2023-05-20T07:36:36;16;12;8
70243;PMS7003;57634;51.136;17.024;2023-05-20T07:39:38;12;11;8
70243;PMS7003;57634;51.136;17.024;2023-05-20T07:42:39;13;11;7
70243;PMS7003;57634;51.136;17.024;2023-05-20T07:45:41;13;12;8
70243;PMS7003;57634;51.136;17.024;2023-05-20T07:48:43;16;14;8
70243;PMS7003;57634;51.136;17.024;2023-05-20T07:51:45;16;15;10
70243;PMS7003;57634;51.136;17.024;2023-05-20T07:55:14;12;10;7
70243;PMS7003;57634;51.136;17.024;2023-05-20T07:58:15;14;12;7
70243;PMS7003;57634;51.136;17.024;2023-05-20T08:01:17;10;10;6
70243;PMS7003;57634;51.136;17.024;2023-05-20T08:04:18;13;13;9
70243;PMS7003;57634;51.136;17.024;2023-05-20T08:07:19;13;11;7
70243;PMS7003;57634;51.136;17.024;2023-05-20T08:10:21;16;15;10
70243;PMS7003;57634;51.136;17.024;2023-05-20T08:13:22;11;11;8
70243;PMS7003;57634;51.136;17.024;2023-05-20T08:16:25;10;9;7
70243;PMS7003;57634;51.136;17.024;2023-05-20T08:19:26;12;11;8
70243;PMS7003;57634;51.136;17.024;2023-05-20T08:22:27;11;10;7
70243;PMS7003;57634;51.136;17.024;2023-05-20T08:26:18;13;13;9
70243;PMS7003;57634;51.136;17.024;2023-05-20T08:29:21;14;12;8
70243;PMS7003;57634;51.136;17.024;2023-05-20T08:32:23;12;12;8
70243;PMS7003;57634;51.136;17.024;2023-05-20T08:35:25;24;22;14
70243;PMS7003;57634;51.136;17.024;2023-05-20T08:38:26;16;15;9
70243;PMS7003;57634;51.136;17.024;2023-05-20T08:41:28;13;12;8
70243;PMS7003;57634;51.136;17.024;2023-05-20T08:44:29;13;11;8
70243;PMS7003;57634;51.136;17.024;2023-05-20T08:47:30;13;11;8
70243;PMS7003;57634;51.136;17.024;2023-05-20T08:50:32;13;12;9
70243;PMS7003;57634;51.136;17.024;2023-05-20T08:53:33;9;9;7
70243;PMS7003;57634;51.136;17.024;2023-05-20T08:56:34;12;11;8
70243;PMS7003;57634;51.136;17.024;2023-05-20T08:59:37;10;10;6
70243;PMS7003;57634;51.136;17.024;2023-05-20T09:02:38;12;11;7
70243;PMS7003;57634;51.136;17.024;2023-05-20T09:06:07;12;10;7
70243;PMS7003;57634;51.136;17.024;2023-05-20T09:09:12;13;9;6
70243;PMS7003;57634;51.136;17.024;2023-05-20T09:12:14;12;10;7
70243;PMS7003;57634;51.136;17.024;2023-05-20T09:15:15;13;11;6
70243;PMS7003;57634;51.136;17.024;2023-05-20T09:18:17;10;10;6
70243;PMS7003;57634;51.136;17.024;2023-05-20T09:21:18;11;11;6
70243;PMS7003;57634;51.136;17.024;2023-05-20T09:24:28;9;9;7
70243;PMS7003;57634;51.136;17.024;2023-05-20T09:27:29;12;10;7
70243;PMS7003;57634;51.136;17.024;2023-05-20T09:30:31;10;9;5
70243;PMS7003;57634;51.136;17.024;2023-05-20T09:33:33;10;8;6
70243;PMS7003;57634;51.136;17.024;2023-05-20T09:37:06;9;9;7
70243;PMS7003;57634;51.136;17.024;2023-05-20T09:40:10;10;8;6
70243;PMS7003;57634;51.136;17.024;2023-05-20T09:43:15;10;9;6
70243;PMS7003;57634;51.136;17.024;2023-05-20T09:46:18;11;10;6
70243;PMS7003;57634;51.136;17.024;2023-05-20T09:49:22;9;9;7
70243;PMS7003;57634;51.136;17.024;2023-05-20T09:52:27;13;12;9
70243;PMS7003;57634;51.136;17.024;2023-05-20T09:55:30;11;10;7
70243;PMS7003;57634;51.136;17.024;2023-05-20T09:58:35;10;8;6
70243;PMS7003;57634;51.136;17.024;2023-05-20T10:01:38;9;9;6
70243;PMS7003;57634;51.136;17.024;2023-05-20T10:04:40;11;9;6
70243;PMS7003;57634;51.136;17.024;2023-05-20T10:08:20;7;7;6
70243;PMS7003;57634;51.136;17.024;2023-05-20T10:17:58;9;8;6
70243;PMS7003;57634;51.136;17.024;2023-05-20T10:21:31;8;8;6
70243;PMS7003;57634;51.136;17.024;2023-05-20T10:24:37;10;9;6
70243;PMS7003;57634;51.136;17.024;2023-05-20T10:27:47;10;10;7
70243;PMS7003;57634;51.136;17.024;2023-05-20T10:30:51;10;9;6
70243;PMS7003;57634;51.136;17.024;2023-05-20T10:33:53;9;9;7
70243;PMS7003;57634;51.136;17.024;2023-05-20T10:36:56;11;11;7
70243;PMS7003;57634;51.136;17.024;2023-05-20T10:43:11;7;7;4
70243;PMS7003;57634;51.136;17.024;2023-05-20T10:46:41;11;10;8
70243;PMS7003;57634;51.136;17.024;2023-05-20T10:49:45;9;9;7
70243;PMS7003;57634;51.136;17.024;2023-05-20T10:52:48;13;11;8
70243;PMS7003;57634;51.136;17.024;2023-05-20T10:55:50;14;13;9
70243;PMS7003;57634;51.136;17.024;2023-05-20T10:58:54;10;10;7
70243;PMS7003;57634;51.136;17.024;2023-05-20T11:01:55;11;9;7
70243;PMS7003;57634;51.136;17.024;2023-05-20T11:04:57;14;13;9
70243;PMS7003;57634;51.136;17.024;2023-05-20T11:08:02;12;12;8
70243;PMS7003;57634;51.136;17.024;2023-05-20T11:11:04;13;13;9
70243;PMS7003;57634;51.136;17.024;2023-05-20T11:14:06;12;11;8
70243;PMS7003;57634;51.136;17.024;2023-05-20T11:20:53;17;17;13
70243;PMS7003;57634;51.136;17.024;2023-05-20T11:23:56;13;12;8
70243;PMS7003;57634;51.136;17.024;2023-05-20T11:26:58;9;9;7
70243;PMS7003;57634;51.136;17.024;2023-05-20T11:30:02;11;11;8
70243;PMS7003;57634;51.136;17.024;2023-05-20T11:33:06;17;12;9
70243;PMS7003;57634;51.136;17.024;2023-05-20T11:36:12;25;20;14
70243;PMS7003;57634;51.136;17.024;2023-05-20T11:39:15;16;15;10
70243;PMS7003;57634;51.136;17.024;2023-05-20T11:42:16;14;14;9
70243;PMS7003;57634;51.136;17.024;2023-05-20T11:45:45;11;10;7
70243;PMS7003;57634;51.136;17.024;2023-05-20T11:51:58;9;9;7
70243;PMS7003;57634;51.136;17.024;2023-05-20T11:55:00;12;11;8
70243;PMS7003;57634;51.136;17.024;2023-05-20T11:58:02;13;13;9
70243;PMS7003;57634;51.136;17.024;2023-05-20T12:01:03;12;11;8
70243;PMS7003;57634;51.136;17.024;2023-05-20T12:04:08;15;12;9
70243;PMS7003;57634;51.136;17.024;2023-05-20T12:07:10;15;13;8
70243;PMS7003;57634;51.136;17.024;2023-05-20T12:10:14;10;10;8
70243;PMS7003;57634;51.136;17.024;2023-05-20T12:13:16;10;8;6
70243;PMS7003;57634;51.136;17.024;2023-05-20T12:16:44;13;12;9
70243;PMS7003;57634;51.136;17.024;2023-05-20T12:19:46;15;13;10
70243;PMS7003;57634;51.136;17.024;2023-05-20T12:22:47;13;11;8
70243;PMS7003;57634;51.136;17.024;2023-05-20T12:25:49;14;13;8
70243;PMS7003;57634;51.136;17.024;2023-05-20T12:28:51;18;17;12
70243;PMS7003;57634;51.136;17.024;2023-05-20T12:31:53;15;12;9
70243;PMS7003;57634;51.136;17.024;2023-05-20T12:34:55;13;10;7
70243;PMS7003;57634;51.136;17.024;2023-05-20T12:37:57;13;12;8
70243;PMS7003;57634;51.136;17.024;2023-05-20T12:40:58;12;11;7
70243;PMS7003;57634;51.136;17.024;2023-05-20T12:43:59;12;11;8
70243;PMS7003;57634;51.136;17.024;2023-05-20T12:47:04;12;11;8
70243;PMS7003;57634;51.136;17.024;2023-05-20T12:50:06;13;13;8
70243;PMS7003;57634;51.136;17.024;2023-05-20T12:53:07;13;12;8
70243;PMS7003;57634;51.136;17.024;2023-05-20T12:56:35;13;10;8
70243;PMS7003;57634;51.136;17.024;2023-05-20T12:59:36;13;12;9
70243;PMS7003;57634;51.136;17.024;2023-05-20T13:02:38;12;12;8
70243;PMS7003;57634;51.136;17.024;2023-05-20T13:05:41;14;13;9
70243;PMS7003;57634;51.136;17.024;2023-05-20T13:08:43;12;12;8
70243;PMS7003;57634;51.136;17.024;2023-05-20T13:11:45;14;14;8
70243;PMS7003;57634;51.136;17.024;2023-05-20T13:14:46;14;13;8
70243;PMS7003;57634;51.136;17.024;2023-05-20T13:17:48;12;11;8
70243;PMS7003;57634;51.136;17.024;2023-05-20T13:20:49;12;12;8
70243;PMS7003;57634;51.136;17.024;2023-05-20T13:23:50;12;12;8
70243;PMS7003;57634;51.136;17.024;2023-05-20T13:26:52;15;14;9
70243;PMS7003;57634;51.136;17.024;2023-05-20T13:29:53;21;20;14
70243;PMS7003;57634;51.136;17.024;2023-05-20T13:32:55;15;14;9
70243;PMS7003;57634;51.136;17.024;2023-05-20T13:35:56;13;13;9
70243;PMS7003;57634;51.136;17.024;2023-05-20T13:39:23;15;14;11
70243;PMS7003;57634;51.136;17.024;2023-05-20T13:42:25;19;16;11
70243;PMS7003;57634;51.136;17.024;2023-05-20T13:45:26;16;16;11
70243;PMS7003;57634;51.136;17.024;2023-05-20T13:48:29;15;15;10
70243;PMS7003;57634;51.136;17.024;2023-05-20T13:51:30;14;14;10
70243;PMS7003;57634;51.136;17.024;2023-05-20T13:54:31;19;18;11
70243;PMS7003;57634;51.136;17.024;2023-05-20T13:57:32;17;15;10
70243;PMS7003;57634;51.136;17.024;2023-05-20T14:00:37;20;17;12
70243;PMS7003;57634;51.136;17.024;2023-05-20T14:03:39;16;15;10
70243;PMS7003;57634;51.136;17.024;2023-05-20T14:06:42;17;16;11
70243;PMS7003;57634;51.136;17.024;2023-05-20T14:09:43;20;19;13
70243;PMS7003;57634;51.136;17.024;2023-05-20T14:12:47;16;16;11
70243;PMS7003;57634;51.136;17.024;2023-05-20T14:15:49;19;19;13
70243;PMS7003;57634;51.136;17.024;2023-05-20T14:19:17;19;18;11
70243;PMS7003;57634;51.136;17.024;2023-05-20T14:22:18;16;16;11
70243;PMS7003;57634;51.136;17.024;2023-05-20T14:25:19;23;21;14
70243;PMS7003;57634;51.136;17.024;2023-05-20T14:28:21;18;16;10
70243;PMS7003;57634;51.136;17.024;2023-05-20T14:31:23;16;16;11
70243;PMS7003;57634;51.136;17.024;2023-05-20T14:34:24;17;15;11
70243;PMS7003;57634;51.136;17.024;2023-05-20T14:37:25;18;17;11
70243;PMS7003;57634;51.136;17.024;2023-05-20T14:40:27;18;17;12
70243;PMS7003;57634;51.136;17.024;2023-05-20T14:43:29;17;16;11
70243;PMS7003;57634;51.136;17.024;2023-05-20T14:46:32;21;19;13
70243;PMS7003;57634;51.136;17.024;2023-05-20T14:49:34;20;19;14
70243;PMS7003;57634;51.136;17.024;2023-05-20T14:52:38;26;23;16
70243;PMS7003;57634;51.136;17.024;2023-05-20T14:55:39;20;17;12
70243;PMS7003;57634;51.136;17.024;2023-05-20T14:59:10;21;17;12
70243;PMS7003;57634;51.136;17.024;2023-05-20T15:02:11;19;18;11
70243;PMS7003;57634;51.136;17.024;2023-05-20T15:05:12;17;17;11
70243;PMS7003;57634;51.136;17.024;2023-05-20T15:08:14;18;16;12
70243;PMS7003;57634;51.136;17.024;2023-05-20T15:11:16;18;17;12
70243;PMS7003;57634;51.136;17.024;2023-05-20T15:14:17;25;22;13
70243;PMS7003;57634;51.136;17.024;2023-05-20T15:17:19;18;17;13
70243;PMS7003;57634;51.136;17.024;2023-05-20T15:20:21;19;19;13
70243;PMS7003;57634;51.136;17.024;2023-05-20T15:23:22;21;19;13
70243;PMS7003;57634;51.136;17.024;2023-05-20T15:26:24;25;23;15
70243;PMS7003;57634;51.136;17.024;2023-05-20T15:29:25;21;21;15
70243;PMS7003;57634;51.136;17.024;2023-05-20T15:32:27;16;16;13
70243;PMS7003;57634;51.136;17.024;2023-05-20T15:35:28;23;20;14
70243;PMS7003;57634;51.136;17.024;2023-05-20T15:38:29;23;22;14
70243;PMS7003;57634;51.136;17.024;2023-05-20T15:41:57;25;23;15
70243;PMS7003;57634;51.136;17.024;2023-05-20T15:45:03;18;18;12
70243;PMS7003;57634;51.136;17.024;2023-05-20T15:48:04;22;20;14
70243;PMS7003;57634;51.136;17.024;2023-05-20T15:51:07;21;21;14
70243;PMS7003;57634;51.136;17.024;2023-05-20T15:54:09;25;24;16
70243;PMS7003;57634;51.136;17.024;2023-05-20T15:57:10;22;22;15
70243;PMS7003;57634;51.136;17.024;2023-05-20T16:00:11;20;19;13
70243;PMS7003;57634;51.136;17.024;2023-05-20T16:03:15;23;22;16
70243;PMS7003;57634;51.136;17.024;2023-05-20T16:06:17;21;20;14
70243;PMS7003;57634;51.136;17.024;2023-05-20T16:09:18;25;22;14
70243;PMS7003;57634;51.136;17.024;2023-05-20T16:12:20;30;26;18
70243;PMS7003;57634;51.136;17.024;2023-05-20T16:15:22;25;24;15
70243;PMS7003;57634;51.136;17.024;2023-05-20T16:18:51;21;20;14
70243;PMS7003;57634;51.136;17.024;2023-05-20T16:21:53;24;23;16
70243;PMS7003;57634;51.136;17.024;2023-05-20T16:24:55;22;22;15
70243;PMS7003;57634;51.136;17.024;2023-05-20T16:27:56;22;20;14
70243;PMS7003;57634;51.136;17.024;2023-05-20T16:31:00;30;27;17
70243;PMS7003;57634;51.136;17.024;2023-05-20T16:34:02;24;21;15
70243;PMS7003;57634;51.136;17.024;2023-05-20T16:37:04;22;19;14
70243;PMS7003;57634;51.136;17.024;2023-05-20T16:40:06;22;20;13
70243;PMS7003;57634;51.136;17.024;2023-05-20T16:43:09;22;21;14
70243;PMS7003;57634;51.136;17.024;2023-05-20T16:46:10;22;21;14
70243;PMS7003;57634;51.136;17.024;2023-05-20T16:49:13;24;22;14
70243;PMS7003;57634;51.136;17.024;2023-05-20T16:52:15;20;19;13
70243;PMS7003;57634;51.136;17.024;2023-05-20T16:55:16;26;24;15
70243;PMS7003;57634;51.136;17.024;2023-05-20T16:58:43;21;17;8
70243;PMS7003;57634;51.136;17.024;2023-05-20T17:01:44;27;24;16
70243;PMS7003;57634;51.136;17.024;2023-05-20T17:04:45;22;22;14
70243;PMS7003;57634;51.136;17.024;2023-05-20T17:07:47;23;21;15
70243;PMS7003;57634;51.136;17.024;2023-05-20T17:10:50;24;22;15
70243;PMS7003;57634;51.136;17.024;2023-05-20T17:13:51;23;22;15
70243;PMS7003;57634;51.136;17.024;2023-05-20T17:16:53;26;24;15
70243;PMS7003;57634;51.136;17.024;2023-05-20T17:19:54;22;22;15
70243;PMS7003;57634;51.136;17.024;2023-05-20T17:22:55;24;22;14
70243;PMS7003;57634;51.136;17.024;2023-05-20T17:25:56;27;22;15
70243;PMS7003;57634;51.136;17.024;2023-05-20T17:28:58;24;23;15
70243;PMS7003;57634;51.136;17.024;2023-05-20T17:31:59;25;22;15
70243;PMS7003;57634;51.136;17.024;2023-05-20T17:35:00;24;22;15
70243;PMS7003;57634;51.136;17.024;2023-05-20T17:38:02;25;24;15
70243;PMS7003;57634;51.136;17.024;2023-05-20T17:41:31;23;21;14
70243;PMS7003;57634;51.136;17.024;2023-05-20T17:44:33;20;19;11
70243;PMS7003;57634;51.136;17.024;2023-05-20T17:47:35;28;25;16
70243;PMS7003;57634;51.136;17.024;2023-05-20T17:50:36;26;24;15
70243;PMS7003;57634;51.136;17.024;2023-05-20T17:53:37;24;23;15
70243;PMS7003;57634;51.136;17.024;2023-05-20T17:56:38;22;22;16
70243;PMS7003;57634;51.136;17.024;2023-05-20T17:59:44;27;25;15
70243;PMS7003;57634;51.136;17.024;2023-05-20T18:02:46;25;22;14
70243;PMS7003;57634;51.136;17.024;2023-05-20T18:05:48;26;23;16
70243;PMS7003;57634;51.136;17.024;2023-05-20T18:08:49;26;23;15
70243;PMS7003;57634;51.136;17.024;2023-05-20T18:11:51;24;23;15
70243;PMS7003;57634;51.136;17.024;2023-05-20T18:14:52;25;23;16
70243;PMS7003;57634;51.136;17.024;2023-05-20T18:17:53;24;23;15
70243;PMS7003;57634;51.136;17.024;2023-05-20T18:20:54;23;20;12
70243;PMS7003;57634;51.136;17.024;2023-05-20T18:24:21;28;25;15
70243;PMS7003;57634;51.136;17.024;2023-05-20T18:27:22;26;25;17
70243;PMS7003;57634;51.136;17.024;2023-05-20T18:30:24;28;25;16
70243;PMS7003;57634;51.136;17.024;2023-05-20T18:33:26;25;24;15
70243;PMS7003;57634;51.136;17.024;2023-05-20T18:36:27;30;26;16
70243;PMS7003;57634;51.136;17.024;2023-05-20T18:39:32;30;26;18
70243;PMS7003;57634;51.136;17.024;2023-05-20T18:42:33;29;25;17
70243;PMS7003;57634;51.136;17.024;2023-05-20T18:45:35;26;24;16
70243;PMS7003;57634;51.136;17.024;2023-05-20T18:48:37;28;26;17
70243;PMS7003;57634;51.136;17.024;2023-05-20T18:51:38;29;26;17
70243;PMS7003;57634;51.136;17.024;2023-05-20T18:54:40;30;27;18
70243;PMS7003;57634;51.136;17.024;2023-05-20T18:57:41;30;27;17
70243;PMS7003;57634;51.136;17.024;2023-05-20T19:00:43;31;26;16
70243;PMS7003;57634;51.136;17.024;2023-05-20T19:03:45;32;27;18
70243;PMS7003;57634;51.136;17.024;2023-05-20T19:07:14;34;29;19
70243;PMS7003;57634;51.136;17.024;2023-05-20T19:10:18;35;27;17
70243;PMS7003;57634;51.136;17.024;2023-05-20T19:13:19;31;27;18
70243;PMS7003;57634;51.136;17.024;2023-05-20T19:16:24;30;26;16
70243;PMS7003;57634;51.136;17.024;2023-05-20T19:19:32;31;26;16
70243;PMS7003;57634;51.136;17.024;2023-05-20T19:22:33;29;26;17
70243;PMS7003;57634;51.136;17.024;2023-05-20T19:25:34;33;27;17
70243;PMS7003;57634;51.136;17.024;2023-05-20T19:28:36;34;30;21
70243;PMS7003;57634;51.136;17.024;2023-05-20T19:31:37;36;30;20
70243;PMS7003;57634;51.136;17.024;2023-05-20T19:34:42;36;30;20
70243;PMS7003;57634;51.136;17.024;2023-05-20T19:37:44;38;31;18
70243;PMS7003;57634;51.136;17.024;2023-05-20T19:41:12;37;31;20
70243;PMS7003;57634;51.136;17.024;2023-05-20T19:44:14;32;27;18
70243;PMS7003;57634;51.136;17.024;2023-05-20T19:47:15;32;28;19
70243;PMS7003;57634;51.136;17.024;2023-05-20T19:50:17;34;28;19
70243;PMS7003;57634;51.136;17.024;2023-05-20T19:53:18;36;30;19
70243;PMS7003;57634;51.136;17.024;2023-05-20T19:56:21;35;29;19